sensor_id;sensor_type;location;lat;lon;timestamp;P1;durP1;ratioP1;P2;durP2;ratioP2
39102;SDS011;24847;48.218;16.414;2022-08-26T00:01:03;6.45;;;5.13;;
39102;SDS011;24847;48.218;16.414;2022-08-26T00:06:07;6.90;;;5.75;;
39102;SDS011;24847;48.218;16.414;2022-08-26T00:11:09;6.45;;;5.68;;
39102;SDS011;24847;48.218;16.414;2022-08-26T00:16:12;6.25;;;5.18;;
39102;SDS011;24847;48.218;16.414;2022-08-26T00:21:16;6.07;;;5.35;;
39102;SDS011;24847;48.218;16.414;2022-08-26T00:26:18;6.35;;;5.10;;
39102;SDS011;24847;48.218;16.414;2022-08-26T00:31:20;5.07;;;4.68;;
39102;SDS011;24847;48.218;16.414;2022-08-26T00:36:24;6.03;;;5.05;;
39102;SDS011;24847;48.218;16.414;2022-08-26T00:41:27;5.40;;;4.72;;
39102;SDS011;24847;48.218;16.414;2022-08-26T00:46:30;7.32;;;4.43;;
39102;SDS011;24847;48.218;16.414;2022-08-26T00:51:39;6.07;;;4.75;;
39102;SDS011;24847;48.218;16.414;2022-08-26T00:56:48;5.43;;;4.53;;
39102;SDS011;24847;48.218;16.414;2022-08-26T01:01:56;6.07;;;4.70;;
39102;SDS011;24847;48.218;16.414;2022-08-26T01:07:00;6.47;;;4.85;;
39102;SDS011;24847;48.218;16.414;2022-08-26T01:12:04;5.68;;;5.07;;
39102;SDS011;24847;48.218;16.414;2022-08-26T01:17:07;6.63;;;5.00;;
39102;SDS011;24847;48.218;16.414;2022-08-26T01:22:13;5.13;;;4.63;;
39102;SDS011;24847;48.218;16.414;2022-08-26T01:27:22;7.53;;;5.00;;
39102;SDS011;24847;48.218;16.414;2022-08-26T01:32:24;6.18;;;4.15;;
39102;SDS011;24847;48.218;16.414;2022-08-26T01:37:31;4.95;;;4.53;;
39102;SDS011;24847;48.218;16.414;2022-08-26T01:42:39;4.90;;;4.32;;
39102;SDS011;24847;48.218;16.414;2022-08-26T01:47:42;5.00;;;4.50;;
39102;SDS011;24847;48.218;16.414;2022-08-26T01:52:45;5.55;;;4.07;;
39102;SDS011;24847;48.218;16.414;2022-08-26T01:57:53;5.63;;;4.50;;
39102;SDS011;24847;48.218;16.414;2022-08-26T02:02:58;5.90;;;3.97;;
39102;SDS011;24847;48.218;16.414;2022-08-26T02:08:14;5.30;;;3.92;;
39102;SDS011;24847;48.218;16.414;2022-08-26T02:13:19;4.13;;;3.72;;
39102;SDS011;24847;48.218;16.414;2022-08-26T02:18:23;4.50;;;4.10;;
39102;SDS011;24847;48.218;16.414;2022-08-26T02:23:26;5.10;;;3.92;;
39102;SDS011;24847;48.218;16.414;2022-08-26T02:28:30;4.18;;;3.72;;
39102;SDS011;24847;48.218;16.414;2022-08-26T02:33:39;4.90;;;4.40;;
39102;SDS011;24847;48.218;16.414;2022-08-26T02:38:41;5.35;;;4.85;;
39102;SDS011;24847;48.218;16.414;2022-08-26T02:43:45;6.30;;;4.60;;
39102;SDS011;24847;48.218;16.414;2022-08-26T02:48:48;5.65;;;4.55;;
39102;SDS011;24847;48.218;16.414;2022-08-26T02:53:51;5.65;;;5.15;;
39102;SDS011;24847;48.218;16.414;2022-08-26T02:58:55;5.78;;;5.13;;
39102;SDS011;24847;48.218;16.414;2022-08-26T03:03:57;6.35;;;5.32;;
39102;SDS011;24847;48.218;16.414;2022-08-26T03:09:00;9.38;;;7.80;;
39102;SDS011;24847;48.218;16.414;2022-08-26T03:14:04;8.93;;;6.00;;
39102;SDS011;24847;48.218;16.414;2022-08-26T03:19:07;6.18;;;5.50;;
39102;SDS011;24847;48.218;16.414;2022-08-26T03:24:10;6.68;;;5.32;;
39102;SDS011;24847;48.218;16.414;2022-08-26T03:29:15;5.53;;;4.93;;
39102;SDS011;24847;48.218;16.414;2022-08-26T03:34:34;6.70;;;5.40;;
39102;SDS011;24847;48.218;16.414;2022-08-26T03:39:37;5.15;;;4.57;;
39102;SDS011;24847;48.218;16.414;2022-08-26T03:44:40;4.90;;;4.50;;
39102;SDS011;24847;48.218;16.414;2022-08-26T03:49:43;5.35;;;4.85;;
39102;SDS011;24847;48.218;16.414;2022-08-26T03:54:45;4.60;;;4.20;;
39102;SDS011;24847;48.218;16.414;2022-08-26T03:59:49;5.78;;;4.57;;
39102;SDS011;24847;48.218;16.414;2022-08-26T04:04:51;5.07;;;4.57;;
39102;SDS011;24847;48.218;16.414;2022-08-26T04:09:54;5.38;;;4.18;;
39102;SDS011;24847;48.218;16.414;2022-08-26T04:14:57;6.57;;;4.43;;
39102;SDS011;24847;48.218;16.414;2022-08-26T04:19:59;5.90;;;4.65;;
39102;SDS011;24847;48.218;16.414;2022-08-26T04:25:02;5.25;;;4.75;;
39102;SDS011;24847;48.218;16.414;2022-08-26T04:30:07;7.00;;;5.05;;
39102;SDS011;24847;48.218;16.414;2022-08-26T04:35:11;6.72;;;5.35;;
39102;SDS011;24847;48.218;16.414;2022-08-26T04:40:13;7.53;;;4.88;;
39102;SDS011;24847;48.218;16.414;2022-08-26T04:45:17;6.93;;;5.45;;
39102;SDS011;24847;48.218;16.414;2022-08-26T04:50:19;6.40;;;5.30;;
39102;SDS011;24847;48.218;16.414;2022-08-26T04:55:23;7.60;;;5.78;;
39102;SDS011;24847;48.218;16.414;2022-08-26T05:00:27;6.50;;;5.40;;
39102;SDS011;24847;48.218;16.414;2022-08-26T05:05:29;6.68;;;5.97;;
39102;SDS011;24847;48.218;16.414;2022-08-26T05:10:31;8.35;;;5.93;;
39102;SDS011;24847;48.218;16.414;2022-08-26T05:15:36;7.90;;;5.55;;
39102;SDS011;24847;48.218;16.414;2022-08-26T05:20:38;6.22;;;5.22;;
39102;SDS011;24847;48.218;16.414;2022-08-26T05:25:42;11.40;;;5.95;;
39102;SDS011;24847;48.218;16.414;2022-08-26T05:30:48;6.95;;;5.35;;
39102;SDS011;24847;48.218;16.414;2022-08-26T05:35:51;7.75;;;5.90;;
39102;SDS011;24847;48.218;16.414;2022-08-26T05:40:54;6.72;;;6.03;;
39102;SDS011;24847;48.218;16.414;2022-08-26T05:46:03;8.38;;;6.88;;
39102;SDS011;24847;48.218;16.414;2022-08-26T05:51:08;8.65;;;6.55;;
39102;SDS011;24847;48.218;16.414;2022-08-26T05:56:12;11.20;;;6.47;;
39102;SDS011;24847;48.218;16.414;2022-08-26T06:01:16;7.82;;;6.32;;
39102;SDS011;24847;48.218;16.414;2022-08-26T06:06:21;8.88;;;6.80;;
39102;SDS011;24847;48.218;16.414;2022-08-26T06:11:26;8.38;;;6.80;;
39102;SDS011;24847;48.218;16.414;2022-08-26T06:16:33;8.27;;;7.45;;
39102;SDS011;24847;48.218;16.414;2022-08-26T06:21:39;8.02;;;6.75;;
39102;SDS011;24847;48.218;16.414;2022-08-26T06:26:46;9.18;;;7.00;;
39102;SDS011;24847;48.218;16.414;2022-08-26T06:31:51;10.00;;;7.78;;
39102;SDS011;24847;48.218;16.414;2022-08-26T06:36:55;7.82;;;7.13;;
39102;SDS011;24847;48.218;16.414;2022-08-26T06:42:00;9.55;;;8.18;;
39102;SDS011;24847;48.218;16.414;2022-08-26T06:47:04;9.75;;;8.38;;
39102;SDS011;24847;48.218;16.414;2022-08-26T06:52:07;11.88;;;9.43;;
39102;SDS011;24847;48.218;16.414;2022-08-26T06:57:09;10.77;;;9.57;;
39102;SDS011;24847;48.218;16.414;2022-08-26T07:02:13;10.48;;;8.82;;
39102;SDS011;24847;48.218;16.414;2022-08-26T07:07:15;10.48;;;8.57;;
39102;SDS011;24847;48.218;16.414;2022-08-26T07:12:17;12.65;;;8.43;;
39102;SDS011;24847;48.218;16.414;2022-08-26T07:17:21;13.20;;;9.32;;
39102;SDS011;24847;48.218;16.414;2022-08-26T07:22:23;13.93;;;9.02;;
39102;SDS011;24847;48.218;16.414;2022-08-26T07:27:25;13.18;;;9.52;;
39102;SDS011;24847;48.218;16.414;2022-08-26T07:32:29;10.80;;;9.18;;
39102;SDS011;24847;48.218;16.414;2022-08-26T07:37:31;13.68;;;9.68;;
39102;SDS011;24847;48.218;16.414;2022-08-26T07:42:33;14.65;;;10.20;;
39102;SDS011;24847;48.218;16.414;2022-08-26T07:47:37;14.23;;;9.57;;
39102;SDS011;24847;48.218;16.414;2022-08-26T07:52:39;13.10;;;9.77;;
39102;SDS011;24847;48.218;16.414;2022-08-26T07:57:42;11.50;;;10.30;;
39102;SDS011;24847;48.218;16.414;2022-08-26T08:02:47;9.73;;;8.32;;
39102;SDS011;24847;48.218;16.414;2022-08-26T08:07:49;11.07;;;9.52;;
39102;SDS011;24847;48.218;16.414;2022-08-26T08:12:53;11.45;;;9.52;;
39102;SDS011;24847;48.218;16.414;2022-08-26T08:17:58;9.10;;;7.80;;
39102;SDS011;24847;48.218;16.414;2022-08-26T08:23:01;11.35;;;8.98;;
39102;SDS011;24847;48.218;16.414;2022-08-26T08:28:04;11.43;;;8.77;;
39102;SDS011;24847;48.218;16.414;2022-08-26T08:33:07;10.73;;;8.77;;
39102;SDS011;24847;48.218;16.414;2022-08-26T08:38:10;14.63;;;8.50;;
39102;SDS011;24847;48.218;16.414;2022-08-26T08:43:12;13.77;;;9.90;;
39102;SDS011;24847;48.218;16.414;2022-08-26T08:48:21;8.93;;;8.02;;
39102;SDS011;24847;48.218;16.414;2022-08-26T08:53:28;10.73;;;7.37;;
39102;SDS011;24847;48.218;16.414;2022-08-26T08:58:48;7.60;;;6.80;;
39102;SDS011;24847;48.218;16.414;2022-08-26T09:04:03;7.93;;;6.50;;
39102;SDS011;24847;48.218;16.414;2022-08-26T09:09:25;7.65;;;6.90;;
39102;SDS011;24847;48.218;16.414;2022-08-26T09:14:39;8.18;;;5.85;;
39102;SDS011;24847;48.218;16.414;2022-08-26T09:19:45;8.82;;;6.57;;
39102;SDS011;24847;48.218;16.414;2022-08-26T09:24:52;8.77;;;7.00;;
39102;SDS011;24847;48.218;16.414;2022-08-26T09:29:57;8.82;;;6.30;;
39102;SDS011;24847;48.218;16.414;2022-08-26T09:35:03;9.15;;;5.97;;
39102;SDS011;24847;48.218;16.414;2022-08-26T09:40:11;9.13;;;6.90;;
39102;SDS011;24847;48.218;16.414;2022-08-26T09:45:26;9.63;;;6.22;;
39102;SDS011;24847;48.218;16.414;2022-08-26T09:50:31;9.68;;;6.80;;
39102;SDS011;24847;48.218;16.414;2022-08-26T09:55:36;7.83;;;5.80;;
39102;SDS011;24847;48.218;16.414;2022-08-26T10:00:41;7.90;;;4.45;;
39102;SDS011;24847;48.218;16.414;2022-08-26T10:05:56;7.05;;;5.72;;
39102;SDS011;24847;48.218;16.414;2022-08-26T10:11:02;7.70;;;6.35;;
39102;SDS011;24847;48.218;16.414;2022-08-26T10:16:16;9.93;;;5.75;;
39102;SDS011;24847;48.218;16.414;2022-08-26T10:21:25;7.30;;;5.13;;
39102;SDS011;24847;48.218;16.414;2022-08-26T10:26:37;5.32;;;4.82;;
39102;SDS011;24847;48.218;16.414;2022-08-26T10:31:45;5.88;;;4.70;;
39102;SDS011;24847;48.218;16.414;2022-08-26T10:36:55;7.38;;;4.78;;
39102;SDS011;24847;48.218;16.414;2022-08-26T10:42:03;7.78;;;4.97;;
39102;SDS011;24847;48.218;16.414;2022-08-26T10:47:11;6.05;;;5.45;;
39102;SDS011;24847;48.218;16.414;2022-08-26T10:52:21;5.32;;;4.80;;
39102;SDS011;24847;48.218;16.414;2022-08-26T10:57:41;5.55;;;5.00;;
39102;SDS011;24847;48.218;16.414;2022-08-26T11:02:50;6.68;;;5.07;;
39102;SDS011;24847;48.218;16.414;2022-08-26T11:19:02;11.50;;;6.13;;
39102;SDS011;24847;48.218;16.414;2022-08-26T11:24:06;7.68;;;5.20;;
39102;SDS011;24847;48.218;16.414;2022-08-26T11:29:09;11.30;;;5.43;;
39102;SDS011;24847;48.218;16.414;2022-08-26T11:34:12;8.50;;;5.40;;
39102;SDS011;24847;48.218;16.414;2022-08-26T11:39:18;7.10;;;4.97;;
39102;SDS011;24847;48.218;16.414;2022-08-26T11:44:25;10.35;;;5.50;;
39102;SDS011;24847;48.218;16.414;2022-08-26T11:49:37;8.00;;;5.30;;
39102;SDS011;24847;48.218;16.414;2022-08-26T11:54:41;8.52;;;5.32;;
39102;SDS011;24847;48.218;16.414;2022-08-26T12:00:00;6.57;;;5.20;;
39102;SDS011;24847;48.218;16.414;2022-08-26T12:05:06;7.25;;;4.32;;
39102;SDS011;24847;48.218;16.414;2022-08-26T12:10:10;6.18;;;5.57;;
39102;SDS011;24847;48.218;16.414;2022-08-26T12:15:29;6.97;;;4.70;;
39102;SDS011;24847;48.218;16.414;2022-08-26T12:20:34;8.73;;;4.50;;
39102;SDS011;24847;48.218;16.414;2022-08-26T12:26:04;7.38;;;4.53;;
39102;SDS011;24847;48.218;16.414;2022-08-26T12:36:22;5.00;;;3.33;;
39102;SDS011;24847;48.218;16.414;2022-08-26T12:41:42;6.00;;;3.50;;
39102;SDS011;24847;48.218;16.414;2022-08-26T12:51:50;5.75;;;3.50;;
39102;SDS011;24847;48.218;16.414;2022-08-26T12:56:54;5.78;;;3.63;;
39102;SDS011;24847;48.218;16.414;2022-08-26T13:01:56;6.03;;;3.42;;
39102;SDS011;24847;48.218;16.414;2022-08-26T13:07:18;7.85;;;3.80;;
39102;SDS011;24847;48.218;16.414;2022-08-26T13:12:26;5.22;;;3.40;;
39102;SDS011;24847;48.218;16.414;2022-08-26T13:17:32;6.50;;;3.08;;
39102;SDS011;24847;48.218;16.414;2022-08-26T13:22:35;6.43;;;2.90;;
39102;SDS011;24847;48.218;16.414;2022-08-26T13:27:38;6.35;;;2.80;;
39102;SDS011;24847;48.218;16.414;2022-08-26T13:32:40;8.05;;;3.60;;
39102;SDS011;24847;48.218;16.414;2022-08-26T13:37:43;5.82;;;3.30;;
39102;SDS011;24847;48.218;16.414;2022-08-26T13:42:46;4.93;;;2.80;;
39102;SDS011;24847;48.218;16.414;2022-08-26T13:47:48;6.30;;;3.15;;
39102;SDS011;24847;48.218;16.414;2022-08-26T13:52:51;3.42;;;2.75;;
39102;SDS011;24847;48.218;16.414;2022-08-26T13:57:55;5.43;;;2.90;;
39102;SDS011;24847;48.218;16.414;2022-08-26T14:02:57;4.55;;;3.47;;
39102;SDS011;24847;48.218;16.414;2022-08-26T14:07:59;5.13;;;3.08;;
39102;SDS011;24847;48.218;16.414;2022-08-26T14:13:03;4.50;;;3.20;;
39102;SDS011;24847;48.218;16.414;2022-08-26T14:18:06;6.60;;;3.03;;
39102;SDS011;24847;48.218;16.414;2022-08-26T14:23:11;3.97;;;2.72;;
39102;SDS011;24847;48.218;16.414;2022-08-26T14:28:14;7.47;;;3.47;;
39102;SDS011;24847;48.218;16.414;2022-08-26T14:33:17;7.07;;;3.95;;
39102;SDS011;24847;48.218;16.414;2022-08-26T14:38:24;6.60;;;3.35;;
39102;SDS011;24847;48.218;16.414;2022-08-26T14:43:27;4.85;;;3.30;;
39102;SDS011;24847;48.218;16.414;2022-08-26T14:48:30;7.22;;;3.28;;
39102;SDS011;24847;48.218;16.414;2022-08-26T14:53:32;5.32;;;3.42;;
39102;SDS011;24847;48.218;16.414;2022-08-26T14:58:59;8.88;;;3.72;;
39102;SDS011;24847;48.218;16.414;2022-08-26T15:04:01;5.80;;;3.22;;
39102;SDS011;24847;48.218;16.414;2022-08-26T15:09:04;7.45;;;3.33;;
39102;SDS011;24847;48.218;16.414;2022-08-26T15:14:07;6.63;;;3.25;;
39102;SDS011;24847;48.218;16.414;2022-08-26T15:19:10;6.07;;;3.65;;
39102;SDS011;24847;48.218;16.414;2022-08-26T15:24:13;9.63;;;3.30;;
39102;SDS011;24847;48.218;16.414;2022-08-26T15:29:19;5.63;;;3.47;;
39102;SDS011;24847;48.218;16.414;2022-08-26T15:34:23;6.70;;;3.40;;
39102;SDS011;24847;48.218;16.414;2022-08-26T15:39:26;7.25;;;3.25;;
39102;SDS011;24847;48.218;16.414;2022-08-26T15:44:29;8.38;;;2.92;;
39102;SDS011;24847;48.218;16.414;2022-08-26T15:49:33;6.45;;;3.05;;
39102;SDS011;24847;48.218;16.414;2022-08-26T15:54:35;8.55;;;6.10;;
39102;SDS011;24847;48.218;16.414;2022-08-26T15:59:40;6.55;;;3.97;;
39102;SDS011;24847;48.218;16.414;2022-08-26T16:04:42;5.93;;;3.13;;
39102;SDS011;24847;48.218;16.414;2022-08-26T16:09:44;8.20;;;3.50;;
39102;SDS011;24847;48.218;16.414;2022-08-26T16:14:49;7.30;;;3.60;;
39102;SDS011;24847;48.218;16.414;2022-08-26T16:19:53;6.78;;;3.30;;
39102;SDS011;24847;48.218;16.414;2022-08-26T16:24:55;7.90;;;3.55;;
39102;SDS011;24847;48.218;16.414;2022-08-26T16:30:00;8.85;;;3.08;;
39102;SDS011;24847;48.218;16.414;2022-08-26T16:35:05;11.18;;;9.40;;
39102;SDS011;24847;48.218;16.414;2022-08-26T16:40:08;7.15;;;4.72;;
39102;SDS011;24847;48.218;16.414;2022-08-26T16:45:13;6.00;;;3.40;;
39102;SDS011;24847;48.218;16.414;2022-08-26T16:50:18;4.60;;;2.90;;
39102;SDS011;24847;48.218;16.414;2022-08-26T16:55:22;6.72;;;2.88;;
39102;SDS011;24847;48.218;16.414;2022-08-26T17:00:26;4.43;;;2.70;;
39102;SDS011;24847;48.218;16.414;2022-08-26T17:05:31;6.10;;;2.85;;
39102;SDS011;24847;48.218;16.414;2022-08-26T17:10:34;4.35;;;2.80;;
39102;SDS011;24847;48.218;16.414;2022-08-26T17:15:37;6.38;;;3.28;;
39102;SDS011;24847;48.218;16.414;2022-08-26T17:20:40;7.57;;;3.92;;
39102;SDS011;24847;48.218;16.414;2022-08-26T17:25:45;6.10;;;3.20;;
39102;SDS011;24847;48.218;16.414;2022-08-26T17:30:49;9.70;;;3.67;;
39102;SDS011;24847;48.218;16.414;2022-08-26T17:35:51;5.25;;;3.40;;
39102;SDS011;24847;48.218;16.414;2022-08-26T17:40:53;5.20;;;3.30;;
39102;SDS011;24847;48.218;16.414;2022-08-26T17:45:58;7.40;;;3.72;;
39102;SDS011;24847;48.218;16.414;2022-08-26T17:51:04;6.70;;;4.43;;
39102;SDS011;24847;48.218;16.414;2022-08-26T17:56:09;6.47;;;4.03;;
39102;SDS011;24847;48.218;16.414;2022-08-26T18:01:14;5.75;;;3.95;;
39102;SDS011;24847;48.218;16.414;2022-08-26T18:06:17;7.03;;;3.55;;
39102;SDS011;24847;48.218;16.414;2022-08-26T18:11:21;7.25;;;4.50;;
39102;SDS011;24847;48.218;16.414;2022-08-26T18:16:25;7.20;;;4.38;;
39102;SDS011;24847;48.218;16.414;2022-08-26T18:21:32;5.53;;;3.58;;
39102;SDS011;24847;48.218;16.414;2022-08-26T18:26:37;5.47;;;4.32;;
39102;SDS011;24847;48.218;16.414;2022-08-26T18:31:45;5.27;;;4.00;;
39102;SDS011;24847;48.218;16.414;2022-08-26T18:36:48;8.07;;;4.95;;
39102;SDS011;24847;48.218;16.414;2022-08-26T18:41:51;10.95;;;4.22;;
39102;SDS011;24847;48.218;16.414;2022-08-26T18:46:55;5.80;;;4.95;;
39102;SDS011;24847;48.218;16.414;2022-08-26T18:51:57;8.32;;;5.07;;
39102;SDS011;24847;48.218;16.414;2022-08-26T18:56:59;9.15;;;5.13;;
39102;SDS011;24847;48.218;16.414;2022-08-26T19:02:03;8.48;;;5.80;;
39102;SDS011;24847;48.218;16.414;2022-08-26T19:07:06;8.23;;;5.50;;
39102;SDS011;24847;48.218;16.414;2022-08-26T19:12:09;10.43;;;6.13;;
39102;SDS011;24847;48.218;16.414;2022-08-26T19:17:14;7.82;;;5.20;;
39102;SDS011;24847;48.218;16.414;2022-08-26T19:22:16;9.68;;;5.50;;
39102;SDS011;24847;48.218;16.414;2022-08-26T19:27:19;8.75;;;5.93;;
39102;SDS011;24847;48.218;16.414;2022-08-26T19:32:22;9.85;;;5.97;;
39102;SDS011;24847;48.218;16.414;2022-08-26T19:37:25;9.90;;;6.90;;
39102;SDS011;24847;48.218;16.414;2022-08-26T19:42:27;11.43;;;8.70;;
39102;SDS011;24847;48.218;16.414;2022-08-26T19:47:31;9.13;;;7.03;;
39102;SDS011;24847;48.218;16.414;2022-08-26T19:52:35;13.07;;;6.32;;
39102;SDS011;24847;48.218;16.414;2022-08-26T19:57:38;9.38;;;5.93;;
39102;SDS011;24847;48.218;16.414;2022-08-26T20:02:42;8.85;;;5.13;;
39102;SDS011;24847;48.218;16.414;2022-08-26T20:07:45;9.93;;;5.35;;
39102;SDS011;24847;48.218;16.414;2022-08-26T20:12:48;6.70;;;5.35;;
39102;SDS011;24847;48.218;16.414;2022-08-26T20:17:53;11.10;;;7.03;;
39102;SDS011;24847;48.218;16.414;2022-08-26T20:22:58;11.07;;;7.15;;
39102;SDS011;24847;48.218;16.414;2022-08-26T20:28:03;9.20;;;6.00;;
39102;SDS011;24847;48.218;16.414;2022-08-26T20:33:06;9.52;;;6.90;;
39102;SDS011;24847;48.218;16.414;2022-08-26T20:38:08;12.07;;;5.75;;
39102;SDS011;24847;48.218;16.414;2022-08-26T20:43:11;8.55;;;4.80;;
39102;SDS011;24847;48.218;16.414;2022-08-26T20:48:14;8.45;;;5.00;;
39102;SDS011;24847;48.218;16.414;2022-08-26T20:53:16;6.78;;;4.28;;
39102;SDS011;24847;48.218;16.414;2022-08-26T20:58:18;8.20;;;4.75;;
39102;SDS011;24847;48.218;16.414;2022-08-26T21:03:25;9.27;;;4.25;;
39102;SDS011;24847;48.218;16.414;2022-08-26T21:08:27;7.25;;;3.95;;
39102;SDS011;24847;48.218;16.414;2022-08-26T21:13:30;8.18;;;4.68;;
39102;SDS011;24847;48.218;16.414;2022-08-26T21:18:33;9.82;;;6.03;;
39102;SDS011;24847;48.218;16.414;2022-08-26T21:23:35;6.97;;;4.97;;
39102;SDS011;24847;48.218;16.414;2022-08-26T21:28:38;8.45;;;4.75;;
39102;SDS011;24847;48.218;16.414;2022-08-26T21:33:44;9.48;;;5.28;;
39102;SDS011;24847;48.218;16.414;2022-08-26T21:38:47;8.85;;;5.90;;
39102;SDS011;24847;48.218;16.414;2022-08-26T21:43:49;9.13;;;5.30;;
39102;SDS011;24847;48.218;16.414;2022-08-26T21:48:55;5.78;;;4.78;;
39102;SDS011;24847;48.218;16.414;2022-08-26T21:54:00;6.93;;;4.90;;
39102;SDS011;24847;48.218;16.414;2022-08-26T21:59:05;4.43;;;4.03;;
39102;SDS011;24847;48.218;16.414;2022-08-26T22:04:10;5.53;;;4.05;;
39102;SDS011;24847;48.218;16.414;2022-08-26T22:09:13;4.90;;;4.00;;
39102;SDS011;24847;48.218;16.414;2022-08-26T22:14:25;5.45;;;3.97;;
39102;SDS011;24847;48.218;16.414;2022-08-26T22:19:29;4.18;;;3.80;;
39102;SDS011;24847;48.218;16.414;2022-08-26T22:24:32;4.93;;;4.15;;
39102;SDS011;24847;48.218;16.414;2022-08-26T22:29:35;3.95;;;3.58;;
39102;SDS011;24847;48.218;16.414;2022-08-26T22:34:38;4.10;;;3.70;;
39102;SDS011;24847;48.218;16.414;2022-08-26T22:39:41;4.72;;;3.63;;
39102;SDS011;24847;48.218;16.414;2022-08-26T22:44:43;3.92;;;3.28;;
39102;SDS011;24847;48.218;16.414;2022-08-26T22:49:46;4.35;;;3.70;;
39102;SDS011;24847;48.218;16.414;2022-08-26T22:54:48;5.60;;;3.40;;
39102;SDS011;24847;48.218;16.414;2022-08-26T22:59:51;4.85;;;3.95;;
39102;SDS011;24847;48.218;16.414;2022-08-26T23:04:55;4.90;;;3.55;;
39102;SDS011;24847;48.218;16.414;2022-08-26T23:09:57;4.60;;;3.63;;
39102;SDS011;24847;48.218;16.414;2022-08-26T23:14:59;5.45;;;4.57;;
39102;SDS011;24847;48.218;16.414;2022-08-26T23:20:05;5.72;;;5.22;;
39102;SDS011;24847;48.218;16.414;2022-08-26T23:25:10;4.60;;;3.87;;
39102;SDS011;24847;48.218;16.414;2022-08-26T23:30:14;24.35;;;21.80;;
39102;SDS011;24847;48.218;16.414;2022-08-26T23:35:21;7.25;;;6.28;;
39102;SDS011;24847;48.218;16.414;2022-08-26T23:40:26;5.32;;;3.63;;
39102;SDS011;24847;48.218;16.414;2022-08-26T23:45:31;4.25;;;3.85;;
39102;SDS011;24847;48.218;16.414;2022-08-26T23:50:36;4.05;;;3.65;;
39102;SDS011;24847;48.218;16.414;2022-08-26T23:55:55;4.03;;;3.40;;
